Time;durP1;ratioP1;P1;durP2;ratioP2;P2;SDS_P1;SDS_P2;PMS_P1;PMS_P2;Temp;Humidity;BMP_temperature;BMP_pressure;BME280_temperature;BME280_humidity;BME280_pressure;Samples;Min_cycle;Max_cycle;Signal;HPM_P1;HPM_P2
2022/04/13 00:01:16;;;;;;;4.17;3.87;;;19.40;44.80;;;;;;5032359;28;20197;-46
2022/04/13 00:03:43;;;;;;;6.53;3.70;;;19.30;44.90;;;;;;5032643;28;20197;-51
2022/04/13 00:06:09;;;;;;;3.77;3.43;;;19.20;45.00;;;;;;5032304;28;20233;-50
2022/04/13 00:08:35;;;;;;;5.53;3.17;;;19.00;45.40;;;;;;5032640;28;20428;-51
2022/04/13 00:11:00;;;;;;;4.10;3.37;;;19.10;45.60;;;;;;5032039;28;20434;-51
2022/04/13 00:13:26;;;;;;;4.40;3.20;;;19.10;45.50;;;;;;5032549;28;20199;-48
2022/04/13 00:15:52;;;;;;;3.60;3.10;;;19.10;45.40;;;;;;5030269;28;20217;-50
2022/04/13 00:18:18;;;;;;;5.53;3.70;;;19.20;45.40;;;;;;5032565;28;20220;-52
2022/04/13 00:20:45;;;;;;;4.47;4.03;;;19.10;45.40;;;;;;5032104;28;20197;-51
2022/04/13 00:23:11;;;;;;;7.50;3.40;;;19.10;45.50;;;;;;5032509;28;20205;-47
2022/04/13 00:25:39;;;;;;;5.93;3.50;;;19.10;45.60;;;;;;5031463;28;20483;-50
2022/04/13 00:28:05;;;;;;;4.60;3.57;;;19.00;45.70;;;;;;5032489;28;20954;-49
2022/04/13 00:30:31;;;;;;;4.03;3.73;;;18.90;45.80;;;;;;5031904;28;20433;-47
2022/04/13 00:32:57;;;;;;;4.73;3.90;;;18.80;46.70;;;;;;5032081;28;20518;-51
2022/04/13 00:35:22;;;;;;;6.60;3.93;;;18.80;46.40;;;;;;5031280;28;20200;-46
2022/04/13 00:37:48;;;;;;;5.00;4.53;;;18.80;46.40;;;;;;5032148;28;20209;-48
2022/04/13 00:40:14;;;;;;;9.10;4.80;;;18.70;46.90;;;;;;5031657;28;20197;-48
2022/04/13 00:42:39;;;;;;;4.53;4.13;;;18.40;47.60;;;;;;5030383;28;20186;-47
2022/04/13 00:45:05;;;;;;;5.07;3.70;;;18.30;47.80;;;;;;5020464;28;20307;-46
2022/04/13 00:47:37;;;;;;;4.40;3.83;;;18.30;47.90;;;;;;5007053;28;20201;-51
2022/04/13 00:50:03;;;;;;;3.80;3.30;;;18.30;47.80;;;;;;5030374;28;20511;-49
2022/04/13 00:52:30;;;;;;;3.83;2.97;;;18.30;47.80;;;;;;5031948;28;20511;-47
2022/04/13 00:54:58;;;;;;;5.87;3.67;;;18.30;47.80;;;;;;5031113;28;20668;-47
2022/04/13 00:57:27;;;;;;;5.13;3.53;;;18.20;47.80;;;;;;5031662;28;20446;-47
2022/04/13 00:59:55;;;;;;;4.90;3.50;;;18.10;47.90;;;;;;5031499;28;20912;-46
2022/04/13 01:02:23;;;;;;;4.17;3.43;;;18.20;47.80;;;;;;5031784;28;20428;-47
2022/04/13 01:04:50;;;;;;;3.53;3.23;;;18.30;47.40;;;;;;5030838;28;20489;-50
2022/04/13 01:07:16;;;;;;;3.70;3.10;;;18.40;47.10;;;;;;5031547;28;20427;-47
2022/04/13 01:09:41;;;;;;;3.40;3.10;;;18.40;46.80;;;;;;5029790;28;20432;-48
2022/04/13 01:12:07;;;;;;;4.80;3.70;;;18.40;46.60;;;;;;5031598;28;20669;-51
2022/04/13 01:14:34;;;;;;;3.40;3.07;;;18.50;46.50;;;;;;5030922;28;20219;-48
2022/04/13 01:17:01;;;;;;;3.70;3.30;;;18.30;46.80;;;;;;5031308;28;20443;-47
2022/04/13 01:19:27;;;;;;;3.57;3.27;;;18.00;47.20;;;;;;5031159;28;20491;-49
2022/04/13 01:21:53;;;;;;;3.20;2.90;;;17.80;47.80;;;;;;5031219;28;21041;-51
2022/04/13 01:24:20;;;;;;;3.43;3.10;;;17.70;48.00;;;;;;5031023;28;20471;-48
2022/04/13 01:26:47;;;;;;;4.17;3.40;;;17.60;48.10;;;;;;5030424;28;20425;-47
2022/04/13 01:29:13;;;;;;;3.20;2.90;;;17.60;48.30;;;;;;5031383;28;20538;-51
2022/04/13 01:31:40;;;;;;;4.57;3.30;;;17.50;48.30;;;;;;5030914;28;20586;-50
2022/04/13 01:34:06;;;;;;;4.13;3.63;;;17.60;48.40;;;;;;5030709;28;20193;-48
2022/04/13 01:36:38;;;;;;;7.87;2.93;;;17.70;48.40;;;;;;5029035;28;20420;-51
2022/04/13 01:39:05;;;;;;;4.70;3.43;;;17.50;48.90;;;;;;5031332;28;20451;-48
2022/04/13 01:41:31;;;;;;;5.80;3.53;;;17.20;49.70;;;;;;5030795;28;20431;-46
2022/04/13 01:43:57;;;;;;;3.90;3.50;;;17.30;50.00;;;;;;5029237;28;21026;-47
2022/04/13 01:46:23;;;;;;;4.73;3.27;;;17.10;50.30;;;;;;5010041;28;20856;-47
2022/04/13 01:48:49;;;;;;;4.30;3.30;;;17.10;50.50;;;;;;5004407;28;20193;-48
2022/04/13 01:51:17;;;;;;;3.97;3.13;;;17.00;50.30;;;;;;5010407;28;20464;-46
2022/04/13 01:53:43;;;;;;;3.97;3.37;;;16.70;50.70;;;;;;5010726;28;20204;-47
2022/04/13 01:56:08;;;;;;;3.20;2.97;;;16.60;51.00;;;;;;5010336;28;20936;-46
2022/04/13 01:58:34;;;;;;;4.80;3.17;;;16.80;50.60;;;;;;5011496;28;20431;-48
2022/04/13 02:00:59;;;;;;;3.70;2.83;;;17.00;50.10;;;;;;5010288;28;20284;-47
2022/04/13 02:03:25;;;;;;;3.27;2.97;;;17.10;49.70;;;;;;5009406;28;20874;-47
2022/04/13 02:05:52;;;;;;;4.20;3.07;;;17.20;49.20;;;;;;5010347;28;20225;-47
2022/04/13 02:08:19;;;;;;;4.53;3.40;;;17.40;48.90;;;;;;5011067;28;20523;-48
2022/04/13 02:10:45;;;;;;;3.00;2.47;;;17.50;48.60;;;;;;5010261;28;20429;-46
2022/04/13 02:13:10;;;;;;;4.00;2.90;;;17.60;48.40;;;;;;5010961;28;20441;-46
2022/04/13 02:15:38;;;;;;;3.10;2.90;;;17.60;48.20;;;;;;5009755;28;20199;-51
2022/04/13 02:18:04;;;;;;;3.00;2.70;;;17.60;48.00;;;;;;5010971;28;20205;-47
2022/04/13 02:20:30;;;;;;;3.07;2.77;;;17.60;47.90;;;;;;5010324;28;20433;-47
2022/04/13 02:22:56;;;;;;;5.40;3.30;;;17.70;48.00;;;;;;5010836;28;20432;-46
2022/04/13 02:25:21;;;;;;;6.30;2.83;;;17.70;48.00;;;;;;5009822;28;20226;-48
2022/04/13 02:27:47;;;;;;;3.23;2.93;;;17.70;48.00;;;;;;5010766;28;20190;-46
2022/04/13 02:30:13;;;;;;;3.40;3.10;;;17.70;47.90;;;;;;5008563;28;20202;-46
2022/04/13 02:32:40;;;;;;;5.30;3.00;;;17.70;47.80;;;;;;5010923;28;20186;-46
2022/04/13 02:35:06;;;;;;;3.90;3.07;;;17.70;47.90;;;;;;5010116;28;20206;-47
2022/04/13 02:37:32;;;;;;;4.53;3.27;;;17.70;47.90;;;;;;5010562;28;20421;-47
2022/04/13 02:39:57;;;;;;;3.10;2.90;;;17.70;48.00;;;;;;5010020;28;20966;-46
2022/04/13 02:42:23;;;;;;;3.20;2.90;;;17.70;48.00;;;;;;5010632;28;20197;-46
2022/04/13 02:44:49;;;;;;;8.50;3.20;;;17.60;48.00;;;;;;5009173;28;20237;-48
2022/04/13 02:47:14;;;;;;;4.17;3.17;;;17.60;48.10;;;;;;5002779;28;20205;-46
2022/04/13 02:49:41;;;;;;;4.30;3.47;;;17.60;48.30;;;;;;5009727;28;20902;-49
2022/04/13 02:52:07;;;;;;;5.33;3.57;;;17.60;48.40;;;;;;5010715;28;20560;-48
2022/04/13 02:54:33;;;;;;;4.67;3.60;;;17.50;48.70;;;;;;5009769;28;20797;-47
2022/04/13 02:56:58;;;;;;;4.43;3.70;;;17.50;48.70;;;;;;5008642;28;20444;-48
2022/04/13 02:59:24;;;;;;;3.80;3.50;;;17.40;48.70;;;;;;5010582;28;20723;-47
2022/04/13 03:01:49;;;;;;;8.13;4.00;;;17.40;48.80;;;;;;5010107;28;20577;-46
2022/04/13 03:04:16;;;;;;;3.27;2.90;;;17.40;48.60;;;;;;5009840;28;20194;-46
2022/04/13 03:06:42;;;;;;;3.47;3.17;;;17.40;48.60;;;;;;5009857;28;20205;-47
2022/04/13 03:09:08;;;;;;;4.03;3.33;;;17.30;48.70;;;;;;5010534;28;20468;-46
2022/04/13 03:11:33;;;;;;;6.53;3.20;;;17.30;48.90;;;;;;5009768;28;20447;-49
2022/04/13 03:13:59;;;;;;;3.80;2.80;;;17.10;49.30;;;;;;5012071;28;20222;-46
2022/04/13 03:16:24;;;;;;;4.20;2.63;;;17.00;49.60;;;;;;5013731;28;20271;-46
2022/04/13 03:18:50;;;;;;;4.93;3.80;;;17.00;49.80;;;;;;5013919;28;20193;-48
2022/04/13 03:21:16;;;;;;;6.40;3.43;;;16.90;49.90;;;;;;5013458;28;20197;-47
2022/04/13 03:23:41;;;;;;;5.43;3.20;;;16.60;50.30;;;;;;5011901;28;20252;-47
2022/04/13 03:26:07;;;;;;;3.40;3.10;;;16.40;51.00;;;;;;5013209;28;20225;-47
2022/04/13 03:28:33;;;;;;;4.53;3.50;;;16.40;51.20;;;;;;5014090;28;20198;-47
2022/04/13 03:30:59;;;;;;;3.97;3.57;;;16.20;51.40;;;;;;5011977;28;20531;-46
2022/04/13 03:33:25;;;;;;;3.53;3.23;;;16.10;51.60;;;;;;5013234;28;20432;-46
2022/04/13 03:35:50;;;;;;;5.20;3.20;;;16.10;51.70;;;;;;5012931;28;20193;-46
2022/04/13 03:38:16;;;;;;;3.60;3.30;;;16.10;51.80;;;;;;5013568;28;20190;-46
2022/04/13 03:40:41;;;;;;;3.70;3.40;;;16.00;52.00;;;;;;5013137;28;20265;-46
2022/04/13 03:43:07;;;;;;;3.77;3.10;;;15.80;52.50;;;;;;5013348;28;20262;-49
2022/04/13 03:45:33;;;;;;;4.33;3.93;;;15.40;53.70;;;;;;5012458;28;20221;-47
2022/04/13 03:47:58;;;;;;;5.70;3.90;;;15.40;53.80;;;;;;5011398;28;20201;-47
2022/04/13 03:50:24;;;;;;;6.33;4.27;;;15.50;53.60;;;;;;5031219;28;20193;-46
2022/04/13 03:52:49;;;;;;;7.83;3.60;;;15.50;53.50;;;;;;5033059;28;20217;-46
2022/04/13 03:55:16;;;;;;;7.37;3.70;;;15.60;53.50;;;;;;5031843;28;20268;-47
2022/04/13 03:57:42;;;;;;;4.63;3.57;;;15.70;53.20;;;;;;5027504;28;20198;-50
2022/04/13 04:00:08;;;;;;;4.87;3.27;;;15.70;53.10;;;;;;5012778;28;20436;-49
2022/04/13 04:02:38;;;;;;;4.53;3.33;;;15.80;53.20;;;;;;5013409;28;20683;-46
2022/04/13 04:05:04;;;;;;;3.10;2.80;;;15.80;52.90;;;;;;5012221;28;20484;-48
2022/04/13 04:07:30;;;;;;;4.43;3.27;;;15.60;53.10;;;;;;5012946;28;20944;-46
2022/04/13 04:09:56;;;;;;;3.53;3.17;;;15.60;53.20;;;;;;5012618;28;20431;-47
2022/04/13 04:12:21;;;;;;;4.43;3.60;;;15.50;53.60;;;;;;5012973;28;20197;-46
2022/04/13 04:14:47;;;;;;;4.17;3.77;;;15.50;53.50;;;;;;5011837;28;20205;-46
2022/04/13 04:17:12;;;;;;;3.40;3.07;;;15.50;53.40;;;;;;5011197;28;20198;-47
2022/04/13 04:19:38;;;;;;;4.30;3.83;;;15.20;53.80;;;;;;5012399;28;20217;-47
2022/04/13 04:22:04;;;;;;;4.50;3.07;;;15.20;54.10;;;;;;5013095;28;20186;-45
2022/04/13 04:24:29;;;;;;;3.13;2.83;;;15.30;53.90;;;;;;5011804;28;20217;-48
2022/04/13 04:26:57;;;;;;;4.00;3.30;;;15.20;54.00;;;;;;5012442;28;20240;-47
2022/04/13 04:29:23;;;;;;;4.70;4.00;;;15.20;54.30;;;;;;5012787;28;20289;-51
2022/04/13 04:31:49;;;;;;;7.33;4.03;;;15.20;54.00;;;;;;5012213;28;20421;-48
2022/04/13 04:34:16;;;;;;;4.30;3.33;;;15.20;53.90;;;;;;5012306;28;20478;-46
2022/04/13 04:36:41;;;;;;;4.00;3.40;;;15.10;53.90;;;;;;5011669;28;20202;-46
2022/04/13 04:39:07;;;;;;;3.20;2.90;;;14.90;54.10;;;;;;5012602;28;20460;-47
2022/04/13 04:41:33;;;;;;;6.00;3.20;;;14.60;54.40;;;;;;5012053;28;20229;-46
2022/04/13 04:43:59;;;;;;;3.60;3.23;;;14.50;55.20;;;;;;5010449;28;20261;-47
2022/04/13 04:46:25;;;;;;;3.23;2.90;;;14.60;54.90;;;;;;5010878;28;20496;-47
2022/04/13 04:48:51;;;;;;;6.73;3.33;;;14.70;54.90;;;;;;5018854;28;20435;-47
2022/04/13 04:51:16;;;;;;;5.13;3.87;;;14.70;54.90;;;;;;5031415;28;20209;-46
2022/04/13 04:53:42;;;;;;;4.03;3.63;;;14.80;54.70;;;;;;5031692;28;20189;-47
2022/04/13 04:56:08;;;;;;;4.60;3.13;;;14.70;54.90;;;;;;5031036;28;20589;-48
2022/04/13 04:58:34;;;;;;;5.57;3.20;;;14.70;55.20;;;;;;5032102;28;20602;-47
2022/04/13 05:00:59;;;;;;;4.27;3.67;;;14.70;55.10;;;;;;5031266;28;20193;-46
2022/04/13 05:03:25;;;;;;;4.07;3.60;;;14.60;55.50;;;;;;5031312;28;20739;-46
2022/04/13 05:05:51;;;;;;;3.43;3.10;;;14.20;56.30;;;;;;5030849;28;20220;-46
2022/04/13 05:08:17;;;;;;;6.20;3.73;;;14.20;56.60;;;;;;5031489;28;20201;-46
2022/04/13 05:10:43;;;;;;;5.47;4.10;;;14.30;56.60;;;;;;5030427;28;20431;-47
2022/04/13 05:13:09;;;;;;;5.27;4.23;;;14.20;56.90;;;;;;5030605;28;20218;-47
2022/04/13 05:15:34;;;;;;;5.23;4.27;;;14.20;57.00;;;;;;5030900;28;21200;-46
2022/04/13 05:18:00;;;;;;;5.70;4.27;;;14.30;56.80;;;;;;5031421;28;20236;-46
2022/04/13 05:20:26;;;;;;;4.37;3.97;;;14.30;56.70;;;;;;5030975;28;20190;-46
2022/04/13 05:22:51;;;;;;;5.60;4.53;;;14.40;56.60;;;;;;5031629;28;20200;-46
2022/04/13 05:25:17;;;;;;;5.70;3.93;;;14.40;56.50;;;;;;5030087;28;20225;-47
2022/04/13 05:27:44;;;;;;;6.50;3.73;;;14.60;56.10;;;;;;5031454;28;20216;-46
2022/04/13 05:30:13;;;;;;;4.50;3.97;;;14.50;56.10;;;;;;5030690;28;20193;-45
2022/04/13 05:32:49;;;;;;;12.07;4.10;;;14.20;57.10;;;;;;5031211;28;20978;-46
2022/04/13 05:35:16;;;;;;;7.60;3.97;;;14.40;57.10;;;;;;5029841;28;20915;-46
2022/04/13 05:37:42;;;;;;;3.60;3.30;;;14.20;56.80;;;;;;5030055;28;20511;-49
2022/04/13 05:40:08;;;;;;;5.03;4.30;;;14.00;57.30;;;;;;5029975;28;20510;-47
2022/04/13 05:42:34;;;;;;;5.90;3.83;;;14.20;57.30;;;;;;5031077;28;20208;-47
2022/04/13 05:44:59;;;;;;;3.57;3.27;;;14.20;56.80;;;;;;5019796;28;20496;-50
2022/04/13 05:47:26;;;;;;;5.40;3.70;;;14.30;56.90;;;;;;5004779;28;20558;-47
2022/04/13 05:49:51;;;;;;;4.73;4.23;;;14.20;56.80;;;;;;5029282;28;20281;-49
2022/04/13 05:52:17;;;;;;;6.60;4.07;;;14.30;56.80;;;;;;5030707;28;20527;-47
2022/04/13 05:54:42;;;;;;;9.00;4.27;;;14.30;56.80;;;;;;5029718;28;20270;-49
2022/04/13 05:57:08;;;;;;;4.77;3.27;;;14.50;56.20;;;;;;5030666;28;20676;-51
2022/04/13 05:59:35;;;;;;;3.80;3.20;;;14.70;55.30;;;;;;5030172;28;20239;-47
2022/04/13 06:02:01;;;;;;;3.47;3.17;;;14.90;55.10;;;;;;5030594;28;20427;-46
2022/04/13 06:04:27;;;;;;;3.20;2.90;;;15.00;54.90;;;;;;5029867;28;20496;-46
2022/04/13 06:06:56;;;;;;;3.83;2.90;;;15.30;54.30;;;;;;5029030;28;20475;-46
2022/04/13 06:09:22;;;;;;;5.07;3.70;;;15.30;54.30;;;;;;5030473;28;20554;-47
2022/04/13 06:11:49;;;;;;;4.20;3.10;;;15.30;54.30;;;;;;5029778;28;20916;-48
2022/04/13 06:14:15;;;;;;;3.73;3.10;;;15.40;54.10;;;;;;5030284;28;20420;-48
2022/04/13 06:16:40;;;;;;;3.80;3.30;;;15.40;53.60;;;;;;5030071;28;20428;-46
2022/04/13 06:19:06;;;;;;;5.30;3.30;;;15.50;54.00;;;;;;5030550;28;20197;-46
2022/04/13 06:21:31;;;;;;;4.13;3.43;;;15.60;53.60;;;;;;5029826;28;20208;-47
2022/04/13 06:23:57;;;;;;;3.00;2.80;;;15.80;53.30;;;;;;5030281;28;20339;-47
2022/04/13 06:26:22;;;;;;;5.03;3.60;;;15.90;53.30;;;;;;5029782;28;20235;-48
2022/04/13 06:28:48;;;;;;;4.30;3.80;;;15.90;53.50;;;;;;5030185;28;20193;-46
2022/04/13 06:31:14;;;;;;;4.37;3.40;;;16.10;53.20;;;;;;5029857;28;20660;-46
2022/04/13 06:33:39;;;;;;;3.80;3.40;;;16.30;52.70;;;;;;5028436;28;20204;-47
2022/04/13 06:36:06;;;;;;;4.23;3.60;;;16.50;52.30;;;;;;5029913;28;20561;-48
2022/04/13 06:38:32;;;;;;;5.13;3.80;;;16.70;51.80;;;;;;5030541;28;20276;-47
2022/04/13 06:40:58;;;;;;;5.97;3.30;;;16.80;51.40;;;;;;5029607;28;20536;-48
2022/04/13 06:43:23;;;;;;;3.63;3.33;;;17.00;50.80;;;;;;5029948;28;20555;-47
2022/04/13 06:45:49;;;;;;;4.87;4.20;;;17.20;50.50;;;;;;5013100;28;20222;-46
2022/04/13 06:48:14;;;;;;;5.13;4.03;;;17.60;50.10;;;;;;5014120;28;20555;-46
2022/04/13 06:50:40;;;;;;;6.03;4.10;;;17.70;49.50;;;;;;5033600;28;20595;-46
2022/04/13 06:53:05;;;;;;;6.60;4.00;;;17.90;49.00;;;;;;5034075;28;20189;-46
2022/04/13 06:55:31;;;;;;;5.60;4.07;;;17.90;48.80;;;;;;5033500;28;20355;-46
2022/04/13 06:57:57;;;;;;;6.17;4.10;;;18.10;49.20;;;;;;5034133;28;20259;-46
2022/04/13 07:00:22;;;;;;;4.13;3.73;;;17.80;48.60;;;;;;5031894;28;20193;-47
2022/04/13 07:02:48;;;;;;;5.43;4.10;;;17.90;49.60;;;;;;5032838;28;20205;-46
2022/04/13 07:05:14;;;;;;;6.60;4.40;;;18.00;48.40;;;;;;5032879;28;20296;-46
2022/04/13 07:07:41;;;;;;;5.43;3.93;;;18.00;48.20;;;;;;5034017;28;20281;-46
2022/04/13 07:10:07;;;;;;;4.57;4.07;;;18.30;48.00;;;;;;5033178;28;20280;-48
2022/04/13 07:12:36;;;;;;;8.07;4.00;;;18.70;47.30;;;;;;5034053;28;20514;-48
2022/04/13 07:15:02;;;;;;;4.33;3.93;;;18.90;46.80;;;;;;5033174;28;20424;-46
2022/04/13 07:17:28;;;;;;;3.83;3.43;;;19.10;46.90;;;;;;5034010;28;20434;-48
2022/04/13 07:19:54;;;;;;;4.40;3.40;;;19.30;46.90;;;;;;5032917;28;20758;-46
2022/04/13 07:22:19;;;;;;;4.63;3.90;;;19.40;46.70;;;;;;5033725;28;20257;-47
2022/04/13 07:24:45;;;;;;;10.80;4.13;;;19.50;46.90;;;;;;5032585;28;20216;-46
2022/04/13 07:27:10;;;;;;;5.60;3.90;;;19.60;46.60;;;;;;5032089;28;20193;-46
2022/04/13 07:29:36;;;;;;;4.73;4.20;;;19.80;46.40;;;;;;5032752;28;20197;-46
2022/04/13 07:32:01;;;;;;;6.53;3.83;;;19.80;45.70;;;;;;5033689;28;20841;-46
2022/04/13 07:34:27;;;;;;;6.07;3.80;;;20.00;46.50;;;;;;5032846;28;20201;-47
2022/04/13 07:36:53;;;;;;;5.40;4.10;;;20.00;45.50;;;;;;5033284;28;20199;-46
2022/04/13 07:39:18;;;;;;;5.67;3.80;;;20.00;45.80;;;;;;5033351;28;20607;-47
2022/04/13 07:41:44;;;;;;;4.10;3.70;;;20.30;45.00;;;;;;5032479;28;20193;-47
2022/04/13 07:44:11;;;;;;;6.03;3.70;;;20.60;44.80;;;;;;5029520;28;20296;-50
2022/04/13 07:46:37;;;;;;;7.03;4.23;;;20.90;44.70;;;;;;5010667;28;20449;-47
2022/04/13 07:49:05;;;;;;;7.37;4.43;;;21.10;44.30;;;;;;5023279;28;20450;-49
2022/04/13 07:51:31;;;;;;;5.17;3.83;;;21.40;44.10;;;;;;5032629;28;20202;-50
2022/04/13 07:53:57;;;;;;;4.47;4.00;;;21.50;43.90;;;;;;5030826;28;20438;-51
2022/04/13 07:56:22;;;;;;;4.40;3.60;;;21.60;43.50;;;;;;5032544;28;20255;-47
2022/04/13 07:58:48;;;;;;;7.20;4.17;;;21.80;43.80;;;;;;5032426;28;20277;-48
2022/04/13 08:01:14;;;;;;;4.20;3.73;;;22.00;43.70;;;;;;5032401;28;20656;-47
2022/04/13 08:03:40;;;;;;;3.53;3.20;;;22.10;43.60;;;;;;5032592;28;20220;-51
2022/04/13 08:06:06;;;;;;;5.57;3.80;;;22.30;43.20;;;;;;5032540;28;21002;-50
2022/04/13 08:08:32;;;;;;;5.23;4.03;;;22.50;43.10;;;;;;5033150;28;20239;-51
2022/04/13 08:10:58;;;;;;;4.40;3.97;;;22.60;43.00;;;;;;5030931;28;20444;-51
2022/04/13 08:13:24;;;;;;;3.70;3.40;;;22.70;43.80;;;;;;5032353;28;20247;-50
2022/04/13 08:15:49;;;;;;;5.63;3.97;;;23.00;43.00;;;;;;5032469;28;20189;-49
2022/04/13 08:18:15;;;;;;;3.70;3.40;;;23.10;42.20;;;;;;5032821;28;20284;-51
2022/04/13 08:20:41;;;;;;;5.77;4.07;;;23.30;41.60;;;;;;5030229;28;20296;-47
2022/04/13 08:23:06;;;;;;;4.17;3.77;;;23.50;41.90;;;;;;5032154;28;20302;-50
2022/04/13 08:25:32;;;;;;;4.40;4.00;;;23.60;42.00;;;;;;5032113;28;20983;-48
2022/04/13 08:27:57;;;;;;;4.60;3.83;;;23.80;40.90;;;;;;5032584;28;20197;-52
2022/04/13 08:30:25;;;;;;;6.53;3.87;;;23.90;40.40;;;;;;5031904;28;20197;-48
2022/04/13 08:32:50;;;;;;;7.30;3.80;;;24.00;40.00;;;;;;5031834;28;20562;-48
2022/04/13 08:35:16;;;;;;;8.07;3.73;;;24.10;40.20;;;;;;5031741;28;20427;-47
2022/04/13 08:37:42;;;;;;;6.40;4.07;;;24.20;40.10;;;;;;5032277;28;20829;-48
2022/04/13 08:40:09;;;;;;;6.83;3.40;;;24.30;39.30;;;;;;5031959;28;20198;-51
2022/04/13 08:43:04;;;;;;;4.87;3.10;;;24.40;39.10;;;;;;5032246;28;20931;-50
2022/04/13 08:45:34;;;;;;;4.20;3.00;;;24.60;38.50;;;;;;5017585;28;20549;-47
2022/04/13 08:48:04;;;;;;;5.80;3.53;;;24.70;37.50;;;;;;5009585;28;20511;-51
2022/04/13 08:50:31;;;;;;;4.60;3.40;;;24.90;37.70;;;;;;5031367;28;20432;-49
2022/04/13 08:52:59;;;;;;;5.20;3.63;;;25.00;37.90;;;;;;5031756;28;20537;-47
2022/04/13 08:55:27;;;;;;;6.53;2.80;;;25.00;37.40;;;;;;5031272;28;21034;-50
2022/04/13 08:58:23;;;;;;;7.57;3.30;;;25.10;37.80;;;;;;5031945;28;20435;-50
2022/04/13 09:00:51;;;;;;;4.53;2.40;;;25.20;37.50;;;;;;5031095;28;20436;-51
2022/04/13 09:03:26;;;;;;;3.87;2.50;;;25.40;37.20;;;;;;5031677;28;20432;-47
2022/04/13 09:05:55;;;;;;;6.03;3.13;;;25.50;35.80;;;;;;5031297;28;20541;-48
2022/04/13 09:08:44;;;;;;;3.60;3.00;;;25.60;35.60;;;;;;5031889;28;20531;-47
2022/04/13 09:11:10;;;;;;;5.30;3.30;;;25.60;35.60;;;;;;5029970;28;20564;-47
2022/04/13 09:13:37;;;;;;;3.67;2.87;;;25.60;35.40;;;;;;5029803;28;20458;-50
2022/04/13 09:16:04;;;;;;;18.97;5.60;;;25.80;36.00;;;;;;5031237;28;20428;-48
2022/04/13 09:18:29;;;;;;;4.20;3.13;;;25.90;35.80;;;;;;5031471;28;20578;-48
2022/04/13 09:20:55;;;;;;;6.70;3.43;;;25.90;35.50;;;;;;5030706;28;20448;-47
2022/04/13 09:23:22;;;;;;;10.87;3.20;;;25.90;35.70;;;;;;5031072;28;20243;-47
2022/04/13 09:25:51;;;;;;;4.37;3.07;;;26.00;36.10;;;;;;5030924;28;20479;-48
2022/04/13 09:28:17;;;;;;;6.07;3.40;;;26.20;35.80;;;;;;5031413;28;20490;-51
2022/04/13 09:30:42;;;;;;;10.57;3.60;;;26.20;36.10;;;;;;5030719;28;20416;-47
2022/04/13 09:33:08;;;;;;;4.10;3.20;;;26.30;36.00;;;;;;5030923;28;20280;-48
2022/04/13 09:35:35;;;;;;;3.63;3.00;;;26.40;35.80;;;;;;5030830;28;20672;-47
2022/04/13 09:38:08;;;;;;;4.83;3.40;;;26.50;36.00;;;;;;5031273;28;20189;-47
2022/04/13 09:40:39;;;;;;;7.70;3.80;;;26.50;35.40;;;;;;5029190;28;20455;-49
2022/04/13 09:43:22;;;;;;;5.23;3.90;;;26.60;35.80;;;;;;5030657;28;20443;-47
2022/04/13 09:45:50;;;;;;;8.20;3.63;;;26.70;35.80;;;;;;5013951;28;20511;-47
2022/04/13 09:48:20;;;;;;;4.30;3.40;;;26.80;35.60;;;;;;5012446;28;20424;-47
2022/04/13 09:50:48;;;;;;;4.60;3.67;;;27.00;35.00;;;;;;5030135;28;20420;-49
2022/04/13 09:53:16;;;;;;;7.53;3.57;;;26.80;35.40;;;;;;5030783;28;20479;-48
2022/04/13 09:55:55;;;;;;;9.27;3.83;;;27.00;35.80;;;;;;5030381;28;20530;-46
2022/04/13 09:58:23;;;;;;;4.07;3.50;;;27.20;34.90;;;;;;5031100;28;20432;-49
2022/04/13 10:00:50;;;;;;;5.00;3.80;;;27.20;34.90;;;;;;5030041;28;20439;-47
2022/04/13 10:03:18;;;;;;;5.70;3.57;;;27.30;34.50;;;;;;5030400;28;20416;-51
2022/04/13 10:05:57;;;;;;;5.23;3.13;;;27.40;34.20;;;;;;5030093;28;20495;-47
2022/04/13 10:08:28;;;;;;;6.83;3.20;;;27.60;34.30;;;;;;5029028;28;20432;-47
2022/04/13 10:10:58;;;;;;;3.87;3.17;;;27.60;33.40;;;;;;5030080;28;20911;-46
2022/04/13 10:13:38;;;;;;;3.40;2.90;;;27.80;33.10;;;;;;5030354;28;20439;-47
2022/04/13 10:16:09;;;;;;;5.57;2.80;;;27.70;33.20;;;;;;5030308;28;20440;-47
2022/04/13 10:19:03;;;;;;;3.73;2.70;;;27.60;33.10;;;;;;5030453;28;20432;-47
2022/04/13 10:21:36;;;;;;;4.80;2.90;;;27.80;32.50;;;;;;5029718;28;20939;-46
2022/04/13 10:24:02;;;;;;;4.40;2.73;;;27.90;32.70;;;;;;5030143;28;20475;-47
2022/04/13 10:26:28;;;;;;;5.17;3.03;;;28.00;32.30;;;;;;5030170;28;20974;-51
2022/04/13 10:28:54;;;;;;;3.93;2.53;;;28.20;32.20;;;;;;5030590;28;20440;-48
2022/04/13 10:31:19;;;;;;;5.60;3.00;;;28.40;31.20;;;;;;5029954;28;20567;-47
2022/04/13 10:33:47;;;;;;;2.80;2.33;;;28.60;31.80;;;;;;5028564;28;20190;-51
2022/04/13 10:36:15;;;;;;;3.40;2.47;;;28.60;30.10;;;;;;5029876;28;20232;-49
2022/04/13 10:38:40;;;;;;;4.20;2.37;;;28.50;30.00;;;;;;5030241;28;20935;-51
2022/04/13 10:41:12;;;;;;;4.33;2.10;;;28.60;30.80;;;;;;5029868;28;20478;-47
2022/04/13 10:43:39;;;;;;;7.33;2.37;;;28.70;31.60;;;;;;5029891;28;20640;-48
2022/04/13 10:46:05;;;;;;;3.20;2.83;;;28.80;32.20;;;;;;5011109;28;20516;-46
2022/04/13 10:48:33;;;;;;;6.20;2.57;;;28.90;32.40;;;;;;5013972;28;20854;-48
2022/04/13 10:51:11;;;;;;;6.97;2.77;;;29.20;30.90;;;;;;5029825;28;20208;-47
2022/04/13 10:54:05;;;;;;;3.97;2.83;;;29.20;30.50;;;;;;5029908;28;20857;-48
2022/04/13 10:56:32;;;;;;;7.00;2.40;;;29.30;32.20;;;;;;5020704;28;20429;-48
2022/04/13 10:59:07;;;;;;;4.70;2.93;;;29.50;31.70;;;;;;5010519;28;20452;-48
2022/04/13 11:01:44;;;;;;;9.03;3.20;;;29.80;31.80;;;;;;5008611;28;20555;-52
2022/04/13 11:04:11;;;;;;;5.40;3.53;;;29.90;32.20;;;;;;5009904;28;20436;-48
2022/04/13 11:06:39;;;;;;;5.70;2.53;;;30.00;30.90;;;;;;5009884;28;20492;-47
2022/04/13 11:09:15;;;;;;;5.83;2.97;;;29.90;30.10;;;;;;5010460;28;20651;-45
2022/04/13 11:11:42;;;;;;;6.37;2.80;;;30.00;30.90;;;;;;5009608;28;20425;-45
2022/04/13 11:14:21;;;;;;;4.23;2.87;;;30.00;31.80;;;;;;5010074;28;20905;-45
2022/04/13 11:16:51;;;;;;;3.87;2.80;;;30.10;31.80;;;;;;5009589;28;20448;-44
2022/04/13 11:19:18;;;;;;;3.13;2.83;;;30.30;31.70;;;;;;5010458;28;20425;-47
2022/04/13 11:21:50;;;;;;;5.40;3.13;;;30.50;30.30;;;;;;5009483;28;20468;-45
2022/04/13 11:24:30;;;;;;;4.83;3.20;;;30.50;30.00;;;;;;5009693;28;20474;-49
2022/04/13 11:26:56;;;;;;;7.93;3.17;;;30.50;29.80;;;;;;5010416;28;21048;-44
2022/04/13 11:29:23;;;;;;;7.43;2.90;;;30.30;29.80;;;;;;5008801;28;20440;-45
2022/04/13 11:32:01;;;;;;;5.83;2.90;;;30.30;30.40;;;;;;5009561;28;20333;-46
2022/04/13 11:34:39;;;;;;;3.47;2.40;;;30.30;30.30;;;;;;5010846;28;21297;-48
2022/04/13 11:37:16;;;;;;;9.20;3.10;;;30.20;30.40;;;;;;5013895;28;20539;-47
2022/04/13 11:39:45;;;;;;;8.03;2.83;;;30.30;31.60;;;;;;5012850;28;20443;-48
2022/04/13 11:42:26;;;;;;;3.50;3.13;;;30.40;31.00;;;;;;5013662;28;20447;-49
2022/04/13 11:44:59;;;;;;;4.00;2.50;;;30.40;30.00;;;;;;5012494;28;20491;-48
2022/04/13 11:47:45;;;;;;;6.40;2.50;;;30.40;31.50;;;;;;5008053;28;20430;-50
2022/04/13 11:50:13;;;;;;;5.60;2.87;;;30.50;30.80;;;;;;5032713;28;21232;-49
2022/04/13 11:52:46;;;;;;;9.07;2.80;;;30.40;29.70;;;;;;5032566;28;20455;-51
2022/04/13 11:55:26;;;;;;;2.50;2.30;;;30.50;30.10;;;;;;5030921;28;20942;-47
2022/04/13 11:58:07;;;;;;;3.87;2.73;;;30.60;31.40;;;;;;5033164;28;20515;-49
2022/04/13 12:00:39;;;;;;;2.73;2.33;;;30.70;31.20;;;;;;5032543;28;20440;-48
2022/04/13 12:03:08;;;;;;;3.17;2.30;;;30.90;30.00;;;;;;5032876;28;20435;-52
2022/04/13 12:05:43;;;;;;;5.27;2.90;;;31.00;30.00;;;;;;5032347;28;20498;-52
2022/04/13 12:08:13;;;;;;;3.27;2.70;;;31.20;30.00;;;;;;5032883;28;20432;-49
2022/04/13 12:10:48;;;;;;;7.00;3.57;;;31.20;30.90;;;;;;5032417;28;20428;-48
2022/04/13 12:13:14;;;;;;;10.27;2.70;;;31.30;30.30;;;;;;5032544;28;20455;-50
2022/04/13 12:15:42;;;;;;;5.23;2.83;;;31.50;29.90;;;;;;5032405;28;20515;-47
2022/04/13 12:18:09;;;;;;;3.00;2.17;;;31.50;30.00;;;;;;5032585;28;20486;-51
2022/04/13 12:20:35;;;;;;;5.80;3.10;;;31.50;29.60;;;;;;5032077;28;20428;-47
2022/04/13 12:23:15;;;;;;;6.60;2.30;;;31.70;30.40;;;;;;5030717;28;20435;-48
2022/04/13 12:25:50;;;;;;;5.97;2.67;;;31.80;30.00;;;;;;5032168;28;20598;-48
2022/04/13 12:28:16;;;;;;;6.40;3.70;;;31.80;30.00;;;;;;5032501;28;21004;-47
2022/04/13 12:30:42;;;;;;;13.87;2.87;;;31.90;30.10;;;;;;5031540;28;20428;-47
2022/04/13 12:33:23;;;;;;;7.23;3.10;;;31.90;29.60;;;;;;5031955;28;20427;-45
2022/04/13 12:36:00;;;;;;;4.20;2.20;;;32.00;29.40;;;;;;5031808;28;20197;-49
2022/04/13 12:38:36;;;;;;;2.60;2.40;;;32.00;30.00;;;;;;5032379;28;20447;-48
2022/04/13 12:41:21;;;;;;;3.63;2.10;;;31.80;29.70;;;;;;5031530;28;20435;-44
2022/04/13 12:43:56;;;;;;;5.90;2.53;;;31.80;29.40;;;;;;5032151;28;20494;-47
2022/04/13 12:46:23;;;;;;;4.80;2.53;;;31.90;27.80;;;;;;5010960;28;20519;-46
2022/04/13 12:48:54;;;;;;;4.20;2.67;;;31.90;29.40;;;;;;5004047;28;20428;-47